createdAt,value
2023-03-07T06:03:14.783Z,29.06
2023-03-07T06:08:15.785Z,29.12
2023-03-07T06:11:15.876Z,29.15
2023-03-07T06:12:15.925Z,29.21
2023-03-07T06:13:15.994Z,29.15
2023-03-07T06:14:16.012Z,29.10
2023-03-07T06:15:16.093Z,29.22
2023-03-07T06:17:16.119Z,29.06
2023-03-07T06:18:16.188Z,29.18
2023-03-07T06:19:16.226Z,29.12
2023-03-07T06:20:16.279Z,29.16
2023-03-07T06:21:16.351Z,29.13
2023-03-07T06:22:16.368Z,29.09
2023-03-07T06:23:16.398Z,29.09
2023-03-07T06:24:16.438Z,29.10
2023-03-07T06:25:16.477Z,29.15
2023-03-07T06:27:16.633Z,29.13
2023-03-07T06:30:16.643Z,29.25
2023-03-07T06:31:16.735Z,29.23
2023-03-07T06:32:16.770Z,29.23
2023-03-07T06:33:16.752Z,29.21
2023-03-07T06:34:16.807Z,29.25
2023-03-07T06:35:16.838Z,29.19
2023-03-07T06:36:16.853Z,29.25
2023-03-07T06:37:16.886Z,29.22
2023-03-07T06:38:16.959Z,29.15
2023-03-07T06:39:16.970Z,29.21
2023-03-07T06:40:16.991Z,29.22
2023-03-07T06:41:17.049Z,29.24
2023-03-07T06:42:17.084Z,29.22
2023-03-07T06:43:17.118Z,29.19
2023-03-07T06:44:17.162Z,29.21
2023-03-07T06:45:17.184Z,29.18
2023-03-07T06:46:17.230Z,29.15
2023-03-07T06:47:17.272Z,29.17
2023-03-07T06:48:16.313Z,29.16
2023-03-07T06:49:17.319Z,29.09
2023-03-07T06:50:19.278Z,29.17
2023-03-07T06:51:17.364Z,29.18
2023-03-07T06:52:17.310Z,29.17
2023-03-07T06:53:17.317Z,29.15
2023-03-07T06:54:17.312Z,29.09
2023-03-07T06:55:17.336Z,29.11
2023-03-07T06:56:17.302Z,29.15
2023-03-07T06:57:16.305Z,29.11
2023-03-07T06:58:17.292Z,29.18
2023-03-07T06:59:17.295Z,29.11
2023-03-07T07:00:16.276Z,29.06
2023-03-07T07:01:17.307Z,29.01
2023-03-07T07:02:17.420Z,29.11
2023-03-07T07:03:17.431Z,29.17
2023-03-07T07:04:17.304Z,29.05
2023-03-07T07:05:16.230Z,29.11
2023-03-07T07:06:17.229Z,29.17
2023-03-07T07:07:17.363Z,29.06
2023-03-07T07:08:17.290Z,29.02
2023-03-07T07:09:17.330Z,29.08
2023-03-07T07:10:17.434Z,29.08
2023-03-07T07:11:16.392Z,29.06
2023-03-07T07:12:17.428Z,28.98
2023-03-07T07:13:17.499Z,28.96
2023-03-07T07:14:16.539Z,29.03
2023-03-07T07:15:16.559Z,29.05
2023-03-07T07:16:17.625Z,29.01
2023-03-07T07:17:17.602Z,29.05
2023-03-07T07:18:17.647Z,28.98
2023-03-07T07:19:17.653Z,29.08
2023-03-07T07:20:17.688Z,29.06
2023-03-07T07:21:17.735Z,28.99
2023-03-07T07:22:17.878Z,28.98
2023-03-07T07:23:17.904Z,28.99
2023-03-07T07:25:17.887Z,29.03
2023-03-07T07:26:16.897Z,28.91
2023-03-07T07:27:17.933Z,29.03
2023-03-07T07:28:18.006Z,28.92
2023-03-07T07:29:18.054Z,28.97
2023-03-07T07:30:17.038Z,29.02
2023-03-07T07:31:18.082Z,28.91
2023-03-07T07:33:18.398Z,28.94
2023-03-07T07:34:18.145Z,28.85
2023-03-07T07:35:17.178Z,28.85
2023-03-07T07:37:18.219Z,29.08
2023-03-07T07:38:18.295Z,28.88
2023-03-07T07:39:18.318Z,28.89
2023-03-07T07:40:18.317Z,28.94
2023-03-07T07:41:17.361Z,28.97
2023-03-07T07:42:18.446Z,29.06
2023-03-07T07:44:18.436Z,28.98
2023-03-07T07:45:18.455Z,28.88
2023-03-07T07:47:18.485Z,28.97
2023-03-07T07:48:18.564Z,28.94
2023-03-07T07:49:18.807Z,28.88
2023-03-07T07:50:18.567Z,28.90
2023-03-07T07:51:18.597Z,28.96
2023-03-07T07:52:18.590Z,28.99
2023-03-07T07:53:18.873Z,28.98
2023-03-07T07:54:18.604Z,28.90
2023-03-07T07:55:18.677Z,28.91
2023-03-07T07:56:18.688Z,28.81
2023-03-07T07:58:18.732Z,28.81
2023-03-07T08:00:18.775Z,29.00
2023-03-07T08:01:18.784Z,28.90
2023-03-07T08:02:18.825Z,29.01
2023-03-07T08:03:18.951Z,28.90
2023-03-07T08:07:17.845Z,28.94
2023-03-07T08:08:18.922Z,28.88
2023-03-07T08:09:18.900Z,28.94
2023-03-07T08:10:18.923Z,28.90
2023-03-07T08:11:18.968Z,28.95
2023-03-07T08:12:18.967Z,28.97
2023-03-07T08:13:19.025Z,29.06
2023-03-07T08:14:19.017Z,28.90
2023-03-07T08:15:19.024Z,28.88
2023-03-07T08:16:19.098Z,28.93
2023-03-07T08:17:19.146Z,28.95
2023-03-07T08:18:19.138Z,29.01
2023-03-07T08:19:19.129Z,28.99
2023-03-07T08:20:19.216Z,28.91
2023-03-07T08:21:18.214Z,28.93
2023-03-07T08:22:19.238Z,29.00
2023-03-07T08:23:18.211Z,28.93
2023-03-07T08:24:20.748Z,29.06
2023-03-07T08:25:19.246Z,28.96
2023-03-07T08:26:19.217Z,28.95
2023-03-07T08:27:19.233Z,29.04
2023-03-07T08:28:19.242Z,28.91
2023-03-07T08:29:19.237Z,28.94
2023-03-07T08:30:19.210Z,28.95
2023-03-07T08:32:18.288Z,28.98
2023-03-07T08:33:19.175Z,28.94
2023-03-07T08:34:18.241Z,29.07
2023-03-07T08:35:19.164Z,29.05
2023-03-07T08:36:18.201Z,28.91
2023-03-07T08:37:19.146Z,29.01
2023-03-07T08:38:19.135Z,29.01
2023-03-07T08:39:18.175Z,29.18
2023-03-07T08:40:19.128Z,28.98
2023-03-07T08:41:19.171Z,29.01
2023-03-07T08:42:19.193Z,29.05
2023-03-07T08:43:19.236Z,29.01
2023-03-07T08:44:19.201Z,29.00
2023-03-07T08:45:20.216Z,29.00
2023-03-07T08:46:19.413Z,28.87
2023-03-07T08:47:19.372Z,28.92
2023-03-07T08:48:19.376Z,28.90
2023-03-07T08:49:19.829Z,28.92
2023-03-07T08:50:19.468Z,28.93
2023-03-07T08:51:19.527Z,29.01
2023-03-07T08:52:18.536Z,29.01
2023-03-07T08:53:19.553Z,29.06
2023-03-07T08:54:19.678Z,29.04
2023-03-07T08:55:19.669Z,29.34
2023-03-07T08:56:18.749Z,29.23
2023-03-07T08:57:19.779Z,29.10
2023-03-07T08:58:19.119Z,29.15
2023-03-07T08:59:20.017Z,29.33
2023-03-07T09:00:20.236Z,29.60
2023-03-07T09:01:18.940Z,29.69
2023-03-07T09:02:20.196Z,29.61
2023-03-07T09:03:20.338Z,29.97
2023-03-07T09:04:34.488Z,29.79
2023-03-07T09:05:27.897Z,29.75
2023-03-07T09:07:19.947Z,29.71
2023-03-07T09:08:19.343Z,29.88
2023-03-07T09:09:19.034Z,29.82
2023-03-07T09:10:20.058Z,29.80
2023-03-07T09:11:19.878Z,29.69
2023-03-07T09:13:19.961Z,29.89
2023-03-07T09:14:19.870Z,29.74
2023-03-07T09:15:20.098Z,29.54
2023-03-07T09:16:19.980Z,29.38
2023-03-07T09:17:19.825Z,29.75
2023-03-07T09:18:18.813Z,29.53
2023-03-07T09:19:18.838Z,28.84
2023-03-07T09:21:19.815Z,28.67
2023-03-07T09:22:18.813Z,27.68
2023-03-07T09:23:19.946Z,27.80
2023-03-07T09:24:18.819Z,27.49
2023-03-07T09:25:19.784Z,27.30
2023-03-07T09:26:19.817Z,27.41
2023-03-07T09:27:19.841Z,27.32
2023-03-07T09:28:19.893Z,27.35
2023-03-07T09:29:19.801Z,27.56
2023-03-07T09:30:18.849Z,27.60
2023-03-07T09:31:19.861Z,27.78
2023-03-07T09:32:19.760Z,27.87
2023-03-07T09:33:18.786Z,27.84
2023-03-07T09:34:19.953Z,27.68
2023-03-07T09:35:19.877Z,27.86
2023-03-07T09:36:18.979Z,27.97
2023-03-07T09:37:20.013Z,27.92
2023-03-07T09:38:20.079Z,27.97
2023-03-07T09:39:19.122Z,28.00
2023-03-07T09:40:19.201Z,27.82
2023-03-07T09:41:20.296Z,28.05
2023-03-07T09:42:20.297Z,27.82
2023-03-07T09:43:20.328Z,27.88
2023-03-07T09:44:20.889Z,28.03
2023-03-07T09:45:20.451Z,28.12
2023-03-07T09:46:19.587Z,28.08
2023-03-07T09:47:19.523Z,28.05
2023-03-07T09:48:20.532Z,28.12
2023-03-07T09:49:20.670Z,28.29
2023-03-07T09:50:20.721Z,28.54
2023-03-07T09:51:20.748Z,28.31
2023-03-07T09:52:20.827Z,28.28
2023-03-07T09:53:20.983Z,28.36
2023-03-07T09:54:21.034Z,28.27
2023-03-07T09:55:21.023Z,28.21
2023-03-07T09:56:21.039Z,28.18
2023-03-07T09:57:21.188Z,28.17
2023-03-07T09:58:21.206Z,28.12
2023-03-07T09:59:23.069Z,28.05
2023-03-07T10:00:20.335Z,28.14
2023-03-07T10:02:20.336Z,28.12
2023-03-07T10:03:20.284Z,28.14
2023-03-07T10:04:20.317Z,28.15
2023-03-07T10:05:21.242Z,28.09
2023-03-07T10:06:21.230Z,28.05
2023-03-07T10:07:21.216Z,28.08
2023-03-07T10:08:21.211Z,28.05
2023-03-07T10:09:21.195Z,28.07
2023-03-07T10:10:21.176Z,28.11
2023-03-07T10:11:21.204Z,28.03
2023-03-07T10:12:21.204Z,28.09
2023-03-07T10:13:21.228Z,28.09
2023-03-07T10:14:21.200Z,28.04
2023-03-07T10:15:20.205Z,28.11
2023-03-07T10:16:21.288Z,28.12
2023-03-07T10:17:21.178Z,28.09
2023-03-07T10:18:21.154Z,28.06
2023-03-07T10:19:21.969Z,28.01
2023-03-07T10:20:21.162Z,28.05
2023-03-07T10:21:21.161Z,28.09
2023-03-07T10:22:20.119Z,28.04
2023-03-07T10:23:22.705Z,28.06
2023-03-07T10:24:21.387Z,28.09
2023-03-07T10:25:21.404Z,28.08
2023-03-07T10:26:21.496Z,28.11
2023-03-07T10:27:21.549Z,28.05
2023-03-07T10:28:21.541Z,28.03
2023-03-07T10:29:21.596Z,28.12
2023-03-07T10:30:21.659Z,28.05
2023-03-07T10:31:21.671Z,28.11
2023-03-07T10:32:21.809Z,28.06
2023-03-07T10:33:21.745Z,28.11
2023-03-07T10:34:26.989Z,28.09
2023-03-07T10:35:21.785Z,28.09
2023-03-07T10:36:21.762Z,28.12
2023-03-07T10:37:21.814Z,28.11
2023-03-07T10:38:21.898Z,28.09
2023-03-07T10:39:21.771Z,28.14
2023-03-07T10:40:20.849Z,28.12
2023-03-07T10:41:21.756Z,28.08
2023-03-07T10:42:21.802Z,28.12
2023-03-07T10:43:21.820Z,28.15
2023-03-07T10:44:20.729Z,28.15
2023-03-07T10:45:21.736Z,28.15
2023-03-07T10:46:25.825Z,28.13
2023-03-07T10:47:21.658Z,28.21
2023-03-07T10:48:21.650Z,28.09
2023-03-07T10:49:21.908Z,28.15
2023-03-07T10:50:21.676Z,28.12
2023-03-07T10:51:21.703Z,28.09
2023-03-07T10:52:21.694Z,28.09
2023-03-07T10:53:21.660Z,28.12
2023-03-07T10:55:23.651Z,28.13
2023-03-07T10:56:20.658Z,28.06
2023-03-07T11:07:21.550Z,28.12
2023-03-07T13:18:25.851Z,30.17
2023-03-07T13:19:26.847Z,30.21
2023-03-07T13:20:25.987Z,30.18
2023-03-07T13:21:25.992Z,30.22
2023-03-07T13:22:26.037Z,30.24
2023-03-07T13:24:26.109Z,30.18
2023-03-07T13:26:26.183Z,30.17
2023-03-07T13:27:26.248Z,30.20
2023-03-07T13:28:26.268Z,30.08
2023-03-07T13:29:26.347Z,30.13
2023-03-07T13:30:26.511Z,30.09
2023-03-07T13:31:26.586Z,30.11
2023-03-07T13:32:26.526Z,30.08
2023-03-07T13:33:26.505Z,30.07
2023-03-07T13:34:26.551Z,30.08
2023-03-07T13:35:26.655Z,30.05
2023-03-07T13:36:26.631Z,30.06
2023-03-07T13:37:26.820Z,30.05
2023-03-07T13:38:26.799Z,30.01
